JST438 YMML-YBCG
Flight info
| Callsign | JST438 |
|---|---|
| Flight time | 1h 52m |
| Altitude | 39000 |
| Route | ML H66 URKER Y54 BERNI Y43 GREAV DCT GOMOL |
| Aircraft | A320/M-SDE3FGHIRWY/LB1 |
Departure
| Time | 2026-05-06 07:52 |
|---|---|
| Airport | Melbourne Airport (YMML) |
Arrival
| Time | 2026-05-06 09:44 |
|---|---|
| Airport | Gold Coast Airport (YBCG) |
| Time | Latitude | Longitude | Altitude | Speed | Heading |
|---|---|---|---|---|---|
| 2026-05-06 07:31 | -37.67527 | 144.84639 | 379 ft | 0 kts | 171° |
| 2026-05-06 07:41 | -37.67511 | 144.84635 | 379 ft | 3 kts | 169° |
| 2026-05-06 07:41 | -37.67488 | 144.84630 | 380 ft | 3 kts | 170° |
| 2026-05-06 07:41 | -37.67465 | 144.84627 | 380 ft | 3 kts | 186° |
| 2026-05-06 07:41 | -37.67448 | 144.84633 | 381 ft | 3 kts | 248° |
| 2026-05-06 07:42 | -37.67447 | 144.84637 | 381 ft | 1 kts | 261° |
| 2026-05-06 07:44 | -37.67450 | 144.84614 | 385 ft | 5 kts | 261° |
| 2026-05-06 07:45 | -37.67458 | 144.84543 | 371 ft | 12 kts | 261° |
| 2026-05-06 07:45 | -37.67472 | 144.84423 | 377 ft | 16 kts | 262° |
| 2026-05-06 07:45 | -37.67456 | 144.84319 | 376 ft | 13 kts | 329° |
| 2026-05-06 07:45 | -37.67367 | 144.84301 | 379 ft | 13 kts | 352° |
| 2026-05-06 07:46 | -37.67270 | 144.84282 | 380 ft | 16 kts | 351° |
| 2026-05-06 07:46 | -37.67142 | 144.84258 | 383 ft | 20 kts | 352° |
| 2026-05-06 07:46 | -37.67004 | 144.84233 | 386 ft | 20 kts | 351° |
| 2026-05-06 07:46 | -37.66869 | 144.84207 | 390 ft | 19 kts | 352° |
| 2026-05-06 07:47 | -37.66764 | 144.84175 | 393 ft | 14 kts | 327° |
| 2026-05-06 07:47 | -37.66719 | 144.84067 | 395 ft | 15 kts | 271° |
| 2026-05-06 07:47 | -37.66672 | 144.83960 | 397 ft | 15 kts | 349° |
| 2026-05-06 07:47 | -37.66569 | 144.83943 | 402 ft | 14 kts | 351° |
| 2026-05-06 07:48 | -37.66471 | 144.83924 | 406 ft | 14 kts | 352° |
| 2026-05-06 07:48 | -37.66381 | 144.83908 | 410 ft | 13 kts | 351° |
| 2026-05-06 07:48 | -37.66274 | 144.83887 | 412 ft | 17 kts | 352° |
| 2026-05-06 07:48 | -37.66141 | 144.83862 | 414 ft | 21 kts | 351° |
| 2026-05-06 07:49 | -37.65999 | 144.83836 | 416 ft | 19 kts | 352° |
| 2026-05-06 07:49 | -37.65865 | 144.83812 | 418 ft | 20 kts | 351° |
| 2026-05-06 07:49 | -37.65725 | 144.83785 | 419 ft | 19 kts | 352° |
| 2026-05-06 07:49 | -37.65632 | 144.83768 | 421 ft | 12 kts | 351° |
| 2026-05-06 07:50 | -37.65581 | 144.83734 | 424 ft | 8 kts | 294° |
| 2026-05-06 07:50 | -37.65585 | 144.83681 | 421 ft | 0 kts | 259° |
| 2026-05-06 07:50 | -37.65586 | 144.83671 | 426 ft | 4 kts | 259° |
| 2026-05-06 07:51 | -37.65595 | 144.83607 | 430 ft | 11 kts | 261° |
| 2026-05-06 07:51 | -37.65652 | 144.83552 | 417 ft | 16 kts | 176° |
| 2026-05-06 07:51 | -37.65957 | 144.83609 | 418 ft | 84 kts | 171° |
| 2026-05-06 07:51 | -37.66763 | 144.83762 | 396 ft | 147 kts | 172° |
| 2026-05-06 07:52 | -37.67951 | 144.83990 | 460 ft | 186 kts | 168° |
| 2026-05-06 07:52 | -37.69206 | 144.84241 | 1155 ft | 183 kts | 173° |
| 2026-05-06 07:52 | -37.70457 | 144.84476 | 1945 ft | 180 kts | 177° |
| 2026-05-06 07:52 | -37.71692 | 144.84704 | 2636 ft | 178 kts | 180° |
| 2026-05-06 07:53 | -37.72910 | 144.84921 | 3312 ft | 175 kts | 185° |
| 2026-05-06 07:53 | -37.74076 | 144.84688 | 3805 ft | 173 kts | 215° |
| 2026-05-06 07:53 | -37.75034 | 144.83721 | 4110 ft | 183 kts | 240° |
| 2026-05-06 07:53 | -37.75546 | 144.82154 | 4441 ft | 203 kts | 265° |
| 2026-05-06 07:54 | -37.75440 | 144.80279 | 4916 ft | 226 kts | 278° |
| 2026-05-06 07:54 | -37.75205 | 144.78288 | 5640 ft | 238 kts | 278° |
| 2026-05-06 07:54 | -37.74918 | 144.76215 | 5991 ft | 243 kts | 286° |
| 2026-05-06 07:54 | -37.74060 | 144.74334 | 6913 ft | 249 kts | 309° |
| 2026-05-06 07:55 | -37.72611 | 144.73087 | 7881 ft | 261 kts | 334° |
| 2026-05-06 07:55 | -37.70763 | 144.72838 | 8810 ft | 280 kts | 2° |
| 2026-05-06 07:55 | -37.68866 | 144.73614 | 9691 ft | 290 kts | 14° |
| 2026-05-06 07:55 | -37.66983 | 144.74543 | 10337 ft | 303 kts | 14° |
| 2026-05-06 07:56 | -37.64946 | 144.75552 | 10614 ft | 327 kts | 15° |
| 2026-05-06 07:56 | -37.62751 | 144.76644 | 11087 ft | 340 kts | 15° |
| 2026-05-06 07:56 | -37.60556 | 144.77740 | 11775 ft | 346 kts | 15° |
| 2026-05-06 07:56 | -37.58306 | 144.78861 | 12496 ft | 350 kts | 15° |
| 2026-05-06 07:57 | -37.56090 | 144.80225 | 13225 ft | 361 kts | 26° |
| 2026-05-06 07:57 | -37.54012 | 144.82070 | 13931 ft | 368 kts | 31° |
| 2026-05-06 07:57 | -37.51938 | 144.83997 | 14538 ft | 373 kts | 31° |
| 2026-05-06 07:57 | -37.49837 | 144.85947 | 15179 ft | 377 kts | 30° |
| 2026-05-06 07:58 | -37.47721 | 144.87909 | 15826 ft | 380 kts | 30° |
| 2026-05-06 07:58 | -37.45585 | 144.89881 | 16474 ft | 383 kts | 30° |
| 2026-05-06 07:58 | -37.43426 | 144.91872 | 17126 ft | 386 kts | 30° |
| 2026-05-06 07:58 | -37.41252 | 144.93878 | 17778 ft | 389 kts | 29° |
| 2026-05-06 07:59 | -37.39058 | 144.95900 | 18431 ft | 392 kts | 29° |
| 2026-05-06 07:59 | -37.36848 | 144.97934 | 19006 ft | 395 kts | 29° |
| 2026-05-06 07:59 | -37.34626 | 144.99978 | 19587 ft | 397 kts | 29° |
| 2026-05-06 07:59 | -37.32389 | 145.02037 | 20188 ft | 400 kts | 29° |
| 2026-05-06 08:00 | -37.30139 | 145.04108 | 20793 ft | 402 kts | 29° |
| 2026-05-06 08:00 | -37.27871 | 145.06190 | 21335 ft | 405 kts | 29° |
| 2026-05-06 08:00 | -37.25591 | 145.08276 | 21886 ft | 407 kts | 29° |
| 2026-05-06 08:00 | -37.23287 | 145.10383 | 22406 ft | 410 kts | 29° |
| 2026-05-06 08:01 | -37.20970 | 145.12502 | 22939 ft | 413 kts | 29° |
| 2026-05-06 08:01 | -37.18640 | 145.14633 | 23457 ft | 416 kts | 29° |
| 2026-05-06 08:01 | -37.16290 | 145.16782 | 23924 ft | 419 kts | 29° |
| 2026-05-06 08:01 | -37.13931 | 145.18940 | 24368 ft | 421 kts | 29° |
| 2026-05-06 08:02 | -37.11554 | 145.21112 | 24826 ft | 423 kts | 28° |
| 2026-05-06 08:02 | -37.09171 | 145.23289 | 25266 ft | 425 kts | 28° |
| 2026-05-06 08:02 | -37.06778 | 145.25489 | 25658 ft | 429 kts | 30° |
| 2026-05-06 08:02 | -37.04417 | 145.27799 | 26089 ft | 433 kts | 31° |
| 2026-05-06 08:03 | -37.02092 | 145.30200 | 26556 ft | 435 kts | 32° |
| 2026-05-06 08:03 | -36.99797 | 145.32636 | 26980 ft | 437 kts | 33° |
| 2026-05-06 08:03 | -36.97485 | 145.35109 | 27386 ft | 439 kts | 33° |
| 2026-05-06 08:03 | -36.95147 | 145.37590 | 27810 ft | 440 kts | 32° |
| 2026-05-06 08:04 | -36.92796 | 145.40054 | 28204 ft | 442 kts | 32° |
| 2026-05-06 08:04 | -36.90421 | 145.42512 | 28602 ft | 445 kts | 32° |
| 2026-05-06 08:04 | -36.88026 | 145.44969 | 29005 ft | 447 kts | 31° |
| 2026-05-06 08:04 | -36.85614 | 145.47433 | 29414 ft | 449 kts | 31° |
| 2026-05-06 08:05 | -36.83192 | 145.49907 | 29816 ft | 451 kts | 31° |
| 2026-05-06 08:05 | -36.80756 | 145.52402 | 30194 ft | 454 kts | 31° |
| 2026-05-06 08:05 | -36.78313 | 145.54908 | 30519 ft | 456 kts | 31° |
| 2026-05-06 08:05 | -36.75860 | 145.57428 | 30832 ft | 458 kts | 32° |
| 2026-05-06 08:06 | -36.73393 | 145.59961 | 31188 ft | 460 kts | 31° |
| 2026-05-06 08:06 | -36.70927 | 145.62491 | 31654 ft | 459 kts | 31° |
| 2026-05-06 08:06 | -36.68462 | 145.65020 | 32117 ft | 458 kts | 31° |
| 2026-05-06 08:06 | -36.66003 | 145.67537 | 32587 ft | 457 kts | 31° |
| 2026-05-06 08:07 | -36.63544 | 145.70048 | 33050 ft | 457 kts | 31° |
| 2026-05-06 08:07 | -36.61087 | 145.72549 | 33465 ft | 457 kts | 31° |
| 2026-05-06 08:07 | -36.58658 | 145.75019 | 33908 ft | 456 kts | 31° |
| 2026-05-06 08:07 | -36.56193 | 145.77524 | 34326 ft | 456 kts | 31° |
| 2026-05-06 08:08 | -36.53743 | 145.80015 | 34733 ft | 455 kts | 31° |
| 2026-05-06 08:08 | -36.51289 | 145.82512 | 35147 ft | 454 kts | 31° |
| 2026-05-06 08:08 | -36.48848 | 145.84997 | 35532 ft | 454 kts | 31° |
| 2026-05-06 08:08 | -36.46403 | 145.87483 | 35848 ft | 454 kts | 31° |
| 2026-05-06 08:09 | -36.43961 | 145.89962 | 36167 ft | 454 kts | 31° |
| 2026-05-06 08:09 | -36.41508 | 145.92448 | 36502 ft | 455 kts | 31° |
| 2026-05-06 08:09 | -36.39054 | 145.94930 | 36845 ft | 454 kts | 31° |
| 2026-05-06 08:09 | -36.36605 | 145.97407 | 37168 ft | 454 kts | 31° |
| 2026-05-06 08:10 | -36.34155 | 145.99880 | 37498 ft | 454 kts | 31° |
| 2026-05-06 08:10 | -36.31703 | 146.02351 | 37791 ft | 454 kts | 31° |
| 2026-05-06 08:10 | -36.29252 | 146.04821 | 38094 ft | 454 kts | 31° |
| 2026-05-06 08:10 | -36.27624 | 146.06460 | 38313 ft | 454 kts | 31° |
| 2026-05-06 08:11 | -36.25168 | 146.08935 | 38647 ft | 454 kts | 31° |
| 2026-05-06 08:11 | -36.22721 | 146.11398 | 38919 ft | 453 kts | 31° |
| 2026-05-06 08:11 | -36.20272 | 146.13861 | 39083 ft | 454 kts | 31° |
| 2026-05-06 08:11 | -36.17817 | 146.16327 | 39135 ft | 455 kts | 31° |
| 2026-05-06 08:12 | -36.12899 | 146.21263 | 39144 ft | 455 kts | 31° |
| 2026-05-06 08:12 | -36.07981 | 146.26184 | 39144 ft | 455 kts | 31° |
| 2026-05-06 08:13 | -36.03094 | 146.31078 | 39150 ft | 455 kts | 31° |
| 2026-05-06 08:13 | -35.98151 | 146.36021 | 39148 ft | 454 kts | 31° |
| 2026-05-06 08:14 | -35.93267 | 146.40889 | 39158 ft | 454 kts | 31° |
| 2026-05-06 08:14 | -35.88348 | 146.45796 | 39164 ft | 455 kts | 31° |
| 2026-05-06 08:15 | -35.83427 | 146.50688 | 39158 ft | 455 kts | 31° |
| 2026-05-06 08:15 | -35.78492 | 146.55580 | 39166 ft | 455 kts | 31° |
| 2026-05-06 08:16 | -35.73559 | 146.60465 | 39168 ft | 455 kts | 31° |
| 2026-05-06 08:16 | -35.68652 | 146.65325 | 39171 ft | 455 kts | 31° |
| 2026-05-06 08:17 | -35.63718 | 146.70193 | 39172 ft | 455 kts | 31° |
| 2026-05-06 08:17 | -35.58777 | 146.75056 | 39180 ft | 455 kts | 31° |
| 2026-05-06 08:18 | -35.53839 | 146.79917 | 39180 ft | 455 kts | 31° |
| 2026-05-06 08:18 | -35.48894 | 146.84781 | 39164 ft | 455 kts | 31° |
| 2026-05-06 08:19 | -35.43945 | 146.89636 | 39170 ft | 455 kts | 31° |
| 2026-05-06 08:19 | -35.38999 | 146.94487 | 39177 ft | 455 kts | 31° |
| 2026-05-06 08:20 | -35.34054 | 146.99323 | 39162 ft | 455 kts | 31° |
| 2026-05-06 08:20 | -35.29107 | 147.04147 | 39170 ft | 455 kts | 31° |
| 2026-05-06 08:21 | -35.24177 | 147.08936 | 39173 ft | 455 kts | 31° |
| 2026-05-06 08:21 | -35.19217 | 147.13766 | 39154 ft | 455 kts | 31° |
| 2026-05-06 08:22 | -35.14265 | 147.18585 | 39179 ft | 455 kts | 31° |
| 2026-05-06 08:22 | -35.09308 | 147.23387 | 39182 ft | 455 kts | 31° |
| 2026-05-06 08:23 | -35.04350 | 147.28182 | 39185 ft | 454 kts | 31° |
| 2026-05-06 08:23 | -34.99393 | 147.32971 | 39172 ft | 454 kts | 31° |
| 2026-05-06 08:24 | -34.94438 | 147.37750 | 39179 ft | 454 kts | 31° |
| 2026-05-06 08:24 | -34.89477 | 147.42538 | 39184 ft | 454 kts | 31° |
| 2026-05-06 08:25 | -34.84514 | 147.47318 | 39171 ft | 454 kts | 31° |
| 2026-05-06 08:25 | -34.79557 | 147.52080 | 39178 ft | 454 kts | 31° |
| 2026-05-06 08:26 | -34.74594 | 147.56841 | 39182 ft | 454 kts | 31° |
| 2026-05-06 08:26 | -34.69669 | 147.61558 | 39162 ft | 454 kts | 31° |
| 2026-05-06 08:27 | -34.64701 | 147.66301 | 39174 ft | 454 kts | 31° |
| 2026-05-06 08:27 | -34.59734 | 147.71040 | 39179 ft | 454 kts | 31° |
| 2026-05-06 08:28 | -34.54765 | 147.75785 | 39186 ft | 454 kts | 31° |
| 2026-05-06 08:28 | -34.49790 | 147.80522 | 39168 ft | 455 kts | 30° |
| 2026-05-06 08:29 | -34.44802 | 147.85262 | 39174 ft | 455 kts | 30° |
| 2026-05-06 08:29 | -34.39818 | 147.89989 | 39180 ft | 455 kts | 30° |
| 2026-05-06 08:30 | -34.34855 | 147.94675 | 39156 ft | 455 kts | 30° |
| 2026-05-06 08:30 | -34.29860 | 147.99401 | 39165 ft | 455 kts | 30° |
| 2026-05-06 08:31 | -34.24857 | 148.04133 | 39171 ft | 456 kts | 30° |
| 2026-05-06 08:31 | -34.19858 | 148.08847 | 39178 ft | 456 kts | 30° |
| 2026-05-06 08:32 | -34.14849 | 148.13561 | 39170 ft | 456 kts | 30° |
| 2026-05-06 08:32 | -34.09860 | 148.18244 | 39166 ft | 456 kts | 30° |
| 2026-05-06 08:33 | -34.04847 | 148.22943 | 39170 ft | 457 kts | 30° |
| 2026-05-06 08:33 | -33.99824 | 148.27651 | 39173 ft | 457 kts | 30° |
| 2026-05-06 08:34 | -33.92294 | 148.34698 | 39178 ft | 457 kts | 30° |
| 2026-05-06 08:35 | -33.87262 | 148.39398 | 39178 ft | 457 kts | 30° |
| 2026-05-06 08:35 | -33.82267 | 148.44049 | 39161 ft | 457 kts | 29° |
| 2026-05-06 08:36 | -33.77232 | 148.48734 | 39162 ft | 457 kts | 29° |
| 2026-05-06 08:36 | -33.72201 | 148.53407 | 39167 ft | 457 kts | 29° |
| 2026-05-06 08:37 | -33.67159 | 148.58080 | 39172 ft | 458 kts | 29° |
| 2026-05-06 08:37 | -33.62112 | 148.62753 | 39147 ft | 458 kts | 29° |
| 2026-05-06 08:38 | -33.57070 | 148.67421 | 39162 ft | 458 kts | 29° |
| 2026-05-06 08:38 | -33.52023 | 148.72089 | 39163 ft | 458 kts | 29° |
| 2026-05-06 08:39 | -33.46970 | 148.76746 | 39147 ft | 458 kts | 29° |
| 2026-05-06 08:39 | -33.41941 | 148.81374 | 39152 ft | 458 kts | 29° |
| 2026-05-06 08:40 | -33.36874 | 148.86030 | 39160 ft | 459 kts | 29° |
| 2026-05-06 08:40 | -33.31806 | 148.90684 | 39165 ft | 459 kts | 29° |
| 2026-05-06 08:41 | -33.26734 | 148.95333 | 39144 ft | 459 kts | 28° |
| 2026-05-06 08:41 | -33.21661 | 148.99968 | 39151 ft | 459 kts | 28° |
| 2026-05-06 08:42 | -33.16590 | 149.04601 | 39151 ft | 459 kts | 29° |
| 2026-05-06 08:42 | -33.11511 | 149.09244 | 39147 ft | 459 kts | 29° |
| 2026-05-06 08:43 | -33.06434 | 149.13874 | 39132 ft | 460 kts | 29° |
| 2026-05-06 08:43 | -33.01349 | 149.18501 | 39137 ft | 460 kts | 29° |
| 2026-05-06 08:44 | -32.96259 | 149.23124 | 39145 ft | 460 kts | 28° |
| 2026-05-06 08:44 | -32.91166 | 149.27737 | 39118 ft | 460 kts | 28° |
| 2026-05-06 08:45 | -32.86108 | 149.32313 | 39126 ft | 459 kts | 29° |
| 2026-05-06 08:45 | -32.81018 | 149.36922 | 39130 ft | 459 kts | 28° |
| 2026-05-06 08:46 | -32.75934 | 149.41517 | 39127 ft | 459 kts | 28° |
| 2026-05-06 08:46 | -32.70846 | 149.46112 | 39106 ft | 459 kts | 28° |
| 2026-05-06 08:47 | -32.65748 | 149.50699 | 39121 ft | 460 kts | 28° |
| 2026-05-06 08:47 | -32.60634 | 149.55284 | 39126 ft | 460 kts | 28° |
| 2026-05-06 08:48 | -32.55568 | 149.59827 | 39128 ft | 459 kts | 28° |
| 2026-05-06 08:48 | -32.50409 | 149.64269 | 39113 ft | 457 kts | 26° |
| 2026-05-06 08:49 | -32.45196 | 149.68590 | 39117 ft | 457 kts | 26° |
| 2026-05-06 08:49 | -32.39986 | 149.72909 | 39112 ft | 458 kts | 26° |
| 2026-05-06 08:50 | -32.34790 | 149.77276 | 39106 ft | 458 kts | 26° |
| 2026-05-06 08:50 | -32.29600 | 149.81647 | 39110 ft | 458 kts | 26° |
| 2026-05-06 08:51 | -32.24395 | 149.86008 | 39122 ft | 458 kts | 26° |
| 2026-05-06 08:51 | -32.19183 | 149.90364 | 39127 ft | 459 kts | 26° |
| 2026-05-06 08:52 | -32.13978 | 149.94713 | 39120 ft | 459 kts | 26° |
| 2026-05-06 08:52 | -32.08759 | 149.99069 | 39123 ft | 459 kts | 26° |
| 2026-05-06 08:53 | -32.03545 | 150.03410 | 39135 ft | 459 kts | 26° |
| 2026-05-06 08:53 | -31.98361 | 150.07721 | 39130 ft | 459 kts | 26° |
| 2026-05-06 08:54 | -31.93143 | 150.12056 | 39107 ft | 459 kts | 26° |
| 2026-05-06 08:54 | -31.87915 | 150.16381 | 39114 ft | 459 kts | 26° |
| 2026-05-06 08:55 | -31.82707 | 150.20685 | 39119 ft | 459 kts | 26° |
| 2026-05-06 08:55 | -31.77483 | 150.25011 | 39117 ft | 459 kts | 26° |
| 2026-05-06 08:56 | -31.73143 | 150.28603 | 39096 ft | 459 kts | 25° |
| 2026-05-06 08:56 | -31.67913 | 150.32913 | 39102 ft | 459 kts | 25° |
| 2026-05-06 08:57 | -31.62684 | 150.37218 | 39103 ft | 459 kts | 25° |
| 2026-05-06 08:57 | -31.57719 | 150.42113 | 39101 ft | 468 kts | 33° |
| 2026-05-06 08:58 | -31.52872 | 150.47217 | 39077 ft | 469 kts | 32° |
| 2026-05-06 08:58 | -31.48013 | 150.52322 | 39085 ft | 469 kts | 32° |
| 2026-05-06 08:59 | -31.43146 | 150.57417 | 39094 ft | 470 kts | 32° |
| 2026-05-06 08:59 | -31.38264 | 150.62513 | 39081 ft | 470 kts | 32° |
| 2026-05-06 09:00 | -31.33385 | 150.67614 | 39099 ft | 470 kts | 32° |
| 2026-05-06 09:00 | -31.28500 | 150.72709 | 39107 ft | 471 kts | 32° |
| 2026-05-06 09:01 | -31.23640 | 150.77775 | 39114 ft | 471 kts | 32° |
| 2026-05-06 09:01 | -31.18744 | 150.82869 | 39089 ft | 471 kts | 31° |
| 2026-05-06 09:02 | -31.13839 | 150.87944 | 39092 ft | 472 kts | 31° |
| 2026-05-06 09:02 | -31.08921 | 150.93033 | 39101 ft | 473 kts | 31° |
| 2026-05-06 09:03 | -31.04012 | 150.98134 | 39105 ft | 473 kts | 31° |
| 2026-05-06 09:03 | -30.99095 | 151.03232 | 39090 ft | 473 kts | 31° |
| 2026-05-06 09:04 | -30.94163 | 151.08313 | 39092 ft | 474 kts | 31° |
| 2026-05-06 09:04 | -30.89223 | 151.13397 | 39109 ft | 474 kts | 31° |
| 2026-05-06 09:05 | -30.84269 | 151.18500 | 39118 ft | 475 kts | 31° |
| 2026-05-06 09:05 | -30.79317 | 151.23595 | 39104 ft | 475 kts | 31° |
| 2026-05-06 09:06 | -30.74386 | 151.28653 | 39120 ft | 476 kts | 30° |
| 2026-05-06 09:06 | -30.69420 | 151.33750 | 39111 ft | 476 kts | 31° |
| 2026-05-06 09:07 | -30.64445 | 151.38841 | 39118 ft | 477 kts | 30° |
| 2026-05-06 09:07 | -30.59464 | 151.43925 | 39102 ft | 477 kts | 30° |
| 2026-05-06 09:08 | -30.54477 | 151.49016 | 39117 ft | 478 kts | 30° |
| 2026-05-06 09:08 | -30.49486 | 151.54105 | 39125 ft | 478 kts | 30° |
| 2026-05-06 09:09 | -30.44483 | 151.59196 | 39142 ft | 478 kts | 30° |
| 2026-05-06 09:09 | -30.39492 | 151.64281 | 39135 ft | 480 kts | 31° |
| 2026-05-06 09:10 | -30.34685 | 151.69741 | 39119 ft | 487 kts | 35° |
| 2026-05-06 09:10 | -30.30059 | 151.75490 | 39126 ft | 489 kts | 36° |
| 2026-05-06 09:11 | -30.25412 | 151.81225 | 39136 ft | 487 kts | 35° |
| 2026-05-06 09:11 | -30.20698 | 151.86849 | 39146 ft | 487 kts | 34° |
| 2026-05-06 09:12 | -30.15991 | 151.92404 | 39150 ft | 487 kts | 34° |
| 2026-05-06 09:12 | -30.11268 | 151.98015 | 39144 ft | 488 kts | 35° |
| 2026-05-06 09:13 | -30.06534 | 152.03631 | 39151 ft | 488 kts | 34° |
| 2026-05-06 09:13 | -30.01792 | 152.09249 | 39155 ft | 488 kts | 35° |
| 2026-05-06 09:14 | -29.97055 | 152.14874 | 39143 ft | 488 kts | 34° |
| 2026-05-06 09:14 | -29.92308 | 152.20484 | 39144 ft | 488 kts | 34° |
| 2026-05-06 09:15 | -29.87555 | 152.26082 | 39147 ft | 488 kts | 34° |
| 2026-05-06 09:15 | -29.82798 | 152.31675 | 39151 ft | 489 kts | 34° |
| 2026-05-06 09:16 | -29.78048 | 152.37280 | 39123 ft | 489 kts | 34° |
| 2026-05-06 09:16 | -29.73284 | 152.42888 | 39126 ft | 490 kts | 34° |
| 2026-05-06 09:17 | -29.68507 | 152.48494 | 39138 ft | 491 kts | 34° |
| 2026-05-06 09:17 | -29.63760 | 152.54057 | 39130 ft | 491 kts | 34° |
| 2026-05-06 09:18 | -29.58975 | 152.59649 | 39103 ft | 491 kts | 33° |
| 2026-05-06 09:18 | -29.54193 | 152.65240 | 39110 ft | 491 kts | 33° |
| 2026-05-06 09:19 | -29.49389 | 152.70851 | 39115 ft | 492 kts | 33° |
| 2026-05-06 09:19 | -29.44580 | 152.76445 | 39126 ft | 493 kts | 33° |
| 2026-05-06 09:19 | -29.42172 | 152.79248 | 38914 ft | 493 kts | 33° |
| 2026-05-06 09:20 | -29.39770 | 152.82052 | 38469 ft | 493 kts | 33° |
| 2026-05-06 09:20 | -29.37356 | 152.84859 | 37764 ft | 495 kts | 34° |
| 2026-05-06 09:20 | -29.34923 | 152.87674 | 37029 ft | 497 kts | 34° |
| 2026-05-06 09:20 | -29.32492 | 152.90483 | 36398 ft | 497 kts | 35° |
| 2026-05-06 09:21 | -29.30059 | 152.93297 | 35839 ft | 496 kts | 35° |
| 2026-05-06 09:21 | -29.27641 | 152.96102 | 35293 ft | 494 kts | 36° |
| 2026-05-06 09:21 | -29.25232 | 152.98899 | 34759 ft | 492 kts | 36° |
| 2026-05-06 09:21 | -29.22828 | 153.01689 | 34227 ft | 489 kts | 37° |
| 2026-05-06 09:22 | -29.20440 | 153.04450 | 33594 ft | 487 kts | 37° |
| 2026-05-06 09:22 | -29.18056 | 153.07200 | 32913 ft | 486 kts | 37° |
| 2026-05-06 09:22 | -29.15712 | 153.09904 | 32243 ft | 484 kts | 37° |
| 2026-05-06 09:22 | -29.13344 | 153.12634 | 31578 ft | 483 kts | 37° |
| 2026-05-06 09:23 | -29.10977 | 153.15366 | 30911 ft | 481 kts | 38° |
| 2026-05-06 09:23 | -29.08632 | 153.18072 | 30269 ft | 478 kts | 38° |
| 2026-05-06 09:23 | -29.06295 | 153.20766 | 29545 ft | 475 kts | 38° |
| 2026-05-06 09:23 | -29.03971 | 153.23440 | 28807 ft | 472 kts | 38° |
| 2026-05-06 09:24 | -29.01662 | 153.26094 | 28040 ft | 470 kts | 38° |
| 2026-05-06 09:24 | -28.99368 | 153.28729 | 27306 ft | 467 kts | 39° |
| 2026-05-06 09:24 | -28.97078 | 153.31358 | 26569 ft | 464 kts | 39° |
| 2026-05-06 09:24 | -28.94809 | 153.33962 | 25868 ft | 461 kts | 39° |
| 2026-05-06 09:25 | -28.92552 | 153.36548 | 25182 ft | 458 kts | 39° |
| 2026-05-06 09:25 | -28.90307 | 153.39119 | 24584 ft | 453 kts | 39° |
| 2026-05-06 09:25 | -28.88097 | 153.41650 | 23987 ft | 449 kts | 39° |
| 2026-05-06 09:25 | -28.85902 | 153.44158 | 23336 ft | 444 kts | 38° |
| 2026-05-06 09:26 | -28.83538 | 153.46321 | 22672 ft | 429 kts | 26° |
| 2026-05-06 09:26 | -28.80917 | 153.47828 | 22031 ft | 416 kts | 16° |
| 2026-05-06 09:26 | -28.78235 | 153.49018 | 21382 ft | 412 kts | 16° |
| 2026-05-06 09:26 | -28.75577 | 153.50197 | 20755 ft | 408 kts | 16° |
| 2026-05-06 09:27 | -28.72945 | 153.51364 | 20183 ft | 404 kts | 16° |
| 2026-05-06 09:27 | -28.70334 | 153.52524 | 19629 ft | 400 kts | 17° |
| 2026-05-06 09:27 | -28.67751 | 153.53671 | 19225 ft | 397 kts | 17° |
| 2026-05-06 09:27 | -28.65174 | 153.54814 | 18905 ft | 397 kts | 17° |
| 2026-05-06 09:28 | -28.62621 | 153.55945 | 18100 ft | 402 kts | 17° |
| 2026-05-06 09:28 | -28.60036 | 153.57091 | 17651 ft | 393 kts | 17° |
| 2026-05-06 09:28 | -28.57514 | 153.58213 | 17155 ft | 386 kts | 17° |
| 2026-05-06 09:28 | -28.54996 | 153.59329 | 16559 ft | 381 kts | 17° |
| 2026-05-06 09:29 | -28.52533 | 153.60418 | 15963 ft | 378 kts | 17° |
| 2026-05-06 09:29 | -28.50112 | 153.61424 | 15355 ft | 374 kts | 16° |
| 2026-05-06 09:29 | -28.47662 | 153.62364 | 14756 ft | 370 kts | 15° |
| 2026-05-06 09:29 | -28.45221 | 153.63260 | 14161 ft | 365 kts | 14° |
| 2026-05-06 09:30 | -28.42816 | 153.64133 | 13269 ft | 361 kts | 15° |
| 2026-05-06 09:30 | -28.40441 | 153.65000 | 12426 ft | 358 kts | 15° |
| 2026-05-06 09:30 | -28.38080 | 153.65867 | 11450 ft | 355 kts | 15° |
| 2026-05-06 09:30 | -28.35726 | 153.66721 | 10763 ft | 353 kts | 15° |
| 2026-05-06 09:31 | -28.33446 | 153.67549 | 10614 ft | 334 kts | 15° |
| 2026-05-06 09:31 | -28.31319 | 153.68322 | 10485 ft | 309 kts | 15° |
| 2026-05-06 09:31 | -28.29291 | 153.68889 | 10100 ft | 294 kts | 4° |
| 2026-05-06 09:31 | -28.27284 | 153.68841 | 9507 ft | 286 kts | 348° |
| 2026-05-06 09:32 | -28.25395 | 153.68227 | 8867 ft | 281 kts | 338° |
| 2026-05-06 09:32 | -28.23556 | 153.67476 | 8338 ft | 280 kts | 338° |
| 2026-05-06 09:32 | -28.21731 | 153.66737 | 7796 ft | 277 kts | 338° |
| 2026-05-06 09:32 | -28.19922 | 153.66007 | 7198 ft | 275 kts | 338° |
| 2026-05-06 09:33 | -28.18121 | 153.65286 | 6652 ft | 275 kts | 339° |
| 2026-05-06 09:33 | -28.16309 | 153.64563 | 6264 ft | 277 kts | 339° |
| 2026-05-06 09:33 | -28.14485 | 153.63846 | 5861 ft | 278 kts | 340° |
| 2026-05-06 09:33 | -28.12660 | 153.63109 | 5463 ft | 279 kts | 340° |
| 2026-05-06 09:34 | -28.10840 | 153.62356 | 5194 ft | 276 kts | 340° |
| 2026-05-06 09:34 | -28.09048 | 153.61599 | 4900 ft | 274 kts | 340° |
| 2026-05-06 09:34 | -28.07268 | 153.60834 | 4546 ft | 274 kts | 339° |
| 2026-05-06 09:34 | -28.05490 | 153.60060 | 4233 ft | 272 kts | 339° |
| 2026-05-06 09:35 | -28.03750 | 153.59304 | 4112 ft | 264 kts | 340° |
| 2026-05-06 09:35 | -28.02069 | 153.58566 | 3990 ft | 255 kts | 339° |
| 2026-05-06 09:35 | -28.00443 | 153.57853 | 3846 ft | 247 kts | 339° |
| 2026-05-06 09:35 | -27.98852 | 153.57147 | 3574 ft | 245 kts | 339° |
| 2026-05-06 09:36 | -27.97329 | 153.56312 | 3290 ft | 243 kts | 321° |
| 2026-05-06 09:36 | -27.96326 | 153.54816 | 2980 ft | 240 kts | 288° |
| 2026-05-06 09:36 | -27.96007 | 153.52985 | 2650 ft | 237 kts | 273° |
| 2026-05-06 09:36 | -27.95862 | 153.51159 | 2516 ft | 226 kts | 272° |
| 2026-05-06 09:37 | -27.95755 | 153.49431 | 2512 ft | 218 kts | 271° |
| 2026-05-06 09:37 | -27.95655 | 153.47727 | 2520 ft | 217 kts | 271° |
| 2026-05-06 09:37 | -27.95555 | 153.46037 | 2524 ft | 211 kts | 271° |
| 2026-05-06 09:37 | -27.95457 | 153.44412 | 2519 ft | 205 kts | 271° |
| 2026-05-06 09:38 | -27.95365 | 153.42817 | 2526 ft | 203 kts | 271° |
| 2026-05-06 09:38 | -27.95394 | 153.41230 | 2517 ft | 200 kts | 254° |
| 2026-05-06 09:38 | -27.95991 | 153.39851 | 2525 ft | 194 kts | 224° |
| 2026-05-06 09:38 | -27.97084 | 153.39011 | 2519 ft | 190 kts | 195° |
| 2026-05-06 09:39 | -27.98377 | 153.38900 | 2520 ft | 187 kts | 166° |
| 2026-05-06 09:39 | -27.99521 | 153.39535 | 2515 ft | 184 kts | 137° |
| 2026-05-06 09:39 | -28.00512 | 153.40453 | 2529 ft | 185 kts | 148° |
| 2026-05-06 09:39 | -28.01633 | 153.41177 | 2528 ft | 186 kts | 150° |
| 2026-05-06 09:40 | -28.02380 | 153.41647 | 2534 ft | 185 kts | 149° |
| 2026-05-06 09:40 | -28.03874 | 153.42592 | 2515 ft | 185 kts | 149° |
| 2026-05-06 09:40 | -28.06064 | 153.43980 | 2163 ft | 175 kts | 149° |
| 2026-05-06 09:41 | -28.07111 | 153.44645 | 1937 ft | 170 kts | 150° |
| 2026-05-06 09:41 | -28.07798 | 153.45080 | 1784 ft | 165 kts | 150° |
| 2026-05-06 09:41 | -28.08783 | 153.45700 | 1563 ft | 158 kts | 150° |
| 2026-05-06 09:41 | -28.09682 | 153.46274 | 1403 ft | 139 kts | 151° |
| 2026-05-06 09:42 | -28.10499 | 153.46798 | 1249 ft | 132 kts | 150° |
| 2026-05-06 09:42 | -28.11296 | 153.47299 | 1062 ft | 128 kts | 152° |
| 2026-05-06 09:42 | -28.12072 | 153.47795 | 875 ft | 129 kts | 151° |
| 2026-05-06 09:42 | -28.12856 | 153.48292 | 733 ft | 130 kts | 152° |
| 2026-05-06 09:43 | -28.13642 | 153.48793 | 555 ft | 129 kts | 153° |
| 2026-05-06 09:43 | -28.14429 | 153.49291 | 397 ft | 131 kts | 154° |
| 2026-05-06 09:43 | -28.15218 | 153.49797 | 192 ft | 130 kts | 153° |
| 2026-05-06 09:43 | -28.16003 | 153.50295 | 28 ft | 123 kts | 154° |
| 2026-05-06 09:44 | -28.16607 | 153.50678 | 28 ft | 75 kts | 150° |
| 2026-05-06 09:44 | -28.16907 | 153.50869 | 29 ft | 28 kts | 151° |
| 2026-05-06 09:44 | -28.16943 | 153.50957 | 28 ft | 14 kts | 64° |
| 2026-05-06 09:44 | -28.16913 | 153.51018 | 26 ft | 2 kts | 60° |
| 2026-05-06 09:45 | -28.16907 | 153.51030 | 26 ft | 2 kts | 60° |
| 2026-05-06 09:45 | -28.16901 | 153.51042 | 31 ft | 3 kts | 60° |
| 2026-05-06 09:45 | -28.16884 | 153.51075 | 30 ft | 7 kts | 60° |
| 2026-05-06 09:45 | -28.16852 | 153.51129 | 30 ft | 10 kts | 39° |
| 2026-05-06 09:46 | -28.16787 | 153.51115 | 29 ft | 7 kts | 330° |
| 2026-05-06 09:46 | -28.16743 | 153.51092 | 28 ft | 5 kts | 356° |
| 2026-05-06 09:46 | -28.16714 | 153.51127 | 29 ft | 8 kts | 60° |
| 2026-05-06 09:46 | -28.16696 | 153.51165 | 29 ft | 2 kts | 61° |
| 2026-05-06 09:47 | -28.16694 | 153.51168 | 28 ft | 0 kts | 60° |